Latest Weather Observations for Kuitpo

IDS60901

Issued at 9:11 pm CST Monday 18 June 2018 (issued every 10 minutes, with the page automatically refreshed every 10 minutes)

About weather observations | Map of Adelaide area stations | Latest observations for Adelaide area | Other Formats
Station Details ID: 023887 Name: KUITPO FOREST RESERVE Lat: -35.17 Lon: 138.68 Height: 365.0 m
Data from the previous 72 hours. | See also: Recent months at Kuitpo
Date/Time
CST
Temp
°C
App
Temp
°C
Dew
Point
°C
Rel
Hum
%
Delta-T
°C
Wind Press
QNH
hPa
Press
MSL
hPa
Rain since
9am
mm
Dir  Spd
km/h
Gust
km/h
Spd
kts
Gust
kts
18/09:00pm 7.7 3.7 5.0 83 1.2 E 15 24 8 13 1026.5 1026.8 1.6
18/08:30pm 7.6 4.4 5.2 85 1.1 E 11 17 6 9 1026.4 1026.7 1.6
18/08:00pm 7.6 4.1 5.4 86 1.0 E 13 15 7 8 1026.8 1027.1 1.6
18/07:30pm 7.8 5.3 6.4 91 0.6 E 9 11 5 6 1027.0 1027.3 1.6
18/07:00pm 7.8 5.7 6.7 93 0.5 E 7 9 4 5 1027.1 1027.4 1.6
18/06:30pm 7.9 6.1 7.1 95 0.4 E 6 7 3 4 1027.0 1027.3 1.6
18/06:00pm 8.0 7.4 7.4 96 0.3 CALM 0 0 0 0 1027.0 1027.3 1.6
18/05:30pm 8.1 7.5 7.5 96 0.3 CALM 0 0 0 0 1027.2 1027.5 1.6
18/05:00pm 8.2 6.5 7.6 96 0.3 WSW 6 9 3 5 1027.2 1027.5 1.6
18/04:30pm 8.3 6.0 7.5 95 0.4 WSW 9 11 5 6 1027.2 1027.5 1.6
18/04:00pm 8.8 7.1 7.7 93 0.5 WNW 6 9 3 5 1027.1 1027.4 1.6
18/03:30pm 9.0 7.0 7.3 89 0.8 W 7 9 4 5 1027.1 1027.4 1.6
18/03:00pm 9.4 8.8 7.3 87 1.0 CALM 0 0 0 0 1027.1 1027.4 1.6
18/02:30pm 9.3 8.7 7.4 88 0.9 CALM 0 0 0 0 1027.1 1027.4 1.6
18/02:00pm 9.4 7.6 7.3 87 1.0 N 6 9 3 5 1027.4 1027.7 1.6
18/01:30pm 9.4 7.8 8.0 91 0.7 NE 6 11 3 6 1027.8 1028.0 1.6
18/01:00pm 8.8 6.8 7.3 90 0.7 NE 7 9 4 5 1027.9 1028.1 1.6
18/12:30pm 8.6 6.4 7.8 95 0.4 ENE 9 13 5 7 1028.3 1028.6 1.4
18/12:00pm 8.2 6.4 7.8 97 0.2 NE 7 11 4 6 1028.7 1029.0 1.4
18/11:30am 8.1 7.6 7.8 98 0.1 CALM 0 6 0 3 1029.2 1029.5 1.2
18/11:00am 7.8 6.1 7.5 98 0.1 SSW 6 9 3 5 1029.3 1029.6 0.6
18/10:30am 7.7 7.1 7.6 99 0.0 CALM 0 0 0 0 1029.6 1029.9 0.4
18/10:00am 7.2 6.5 7.1 99 0.0 CALM 0 6 0 3 1029.5 1029.8 0.4
18/09:30am 7.0 4.6 6.9 99 0.0 W 9 11 5 6 1029.3 1029.6 0.2
18/09:00am 6.8 4.7 6.7 99 0.0 W 7 11 4 6 1029.0 1029.3 1.6
18/08:30am 6.9 5.4 6.8 99 0.0 SSW 4 6 2 3 1028.8 1029.1 1.6
18/08:00am 6.5 4.5 6.2 98 0.1 SSE 6 9 3 5 1028.6 1028.9 1.4
18/07:30am 6.2 4.1 5.9 98 0.1 S 6 7 3 4 1028.1 1028.3 1.4
18/07:00am 6.1 4.0 5.8 98 0.1 SE 6 7 3 4 1027.6 1027.9 1.4
18/06:30am 5.9 3.8 5.6 98 0.1 SE 6 7 3 4 1027.5 1027.8 1.4
18/06:00am 5.7 3.5 5.3 97 0.2 SSE 6 9 3 5 1027.4 1027.7 1.2
18/05:30am 6.1 3.8 5.7 97 0.2 SSW 7 11 4 6 1027.4 1027.7 1.2
18/05:00am 6.1 3.8 5.5 96 0.3 SW 7 13 4 7 1027.6 1027.9 1.0
18/04:30am 6.3 5.3 5.7 96 0.3 CALM 0 0 0 0 1027.4 1027.7 1.0
18/04:00am 6.3 4.9 5.6 95 0.3 SSE 2 6 1 3 1027.4 1027.7 1.0
18/03:30am 6.4 4.2 5.5 94 0.4 SSE 6 7 3 4 1027.5 1027.8 1.0
18/03:00am 6.1 3.8 4.9 92 0.5 SSE 6 7 3 4 1027.5 1027.8 1.0
18/02:30am 6.3 3.4 4.6 89 0.7 SE 9 17 5 9 1027.6 1027.9 1.0
18/02:00am 6.7 3.8 4.4 85 1.0 SSW 9 11 5 6 1027.5 1027.8 1.0
18/01:30am 7.0 4.6 4.1 82 1.3 SW 6 9 3 5 1027.3 1027.6 1.0
18/01:00am 7.1 4.5 4.2 82 1.3 SW 7 7 4 4 1027.3 1027.6 1.0
18/12:30am 7.3 4.7 4.3 81 1.3 SSE 7 11 4 6 1027.4 1027.7 1.0
18/12:00am 7.2 3.5 4.2 81 1.3 S 13 24 7 13 1027.5 1027.8 1.0
 
Date/Time
CST
Temp
°C
App
Temp
°C
Dew
Point
°C
Rel
Hum
%
Delta-T
°C
Wind Press
QNH
hPa
Press
MSL
hPa
Rain since
9am
mm
Dir  Spd
km/h
Gust
km/h
Spd
kts
Gust
kts
17/11:30pm 7.1 3.5 2.8 74 1.8 S 11 17 6 9 1027.6 1027.9 1.0
17/11:00pm 6.9 3.7 3.3 78 1.6 SSW 9 13 5 7 1027.8 1028.0 1.0
17/10:30pm 7.1 3.9 3.0 75 1.7 SSW 9 13 5 7 1027.8 1028.0 1.0
17/10:00pm 6.9 3.7 3.2 77 1.6 SSW 9 15 5 8 1027.6 1027.9 1.0
17/09:30pm 6.9 3.3 3.2 77 1.6 SSW 11 15 6 8 1027.6 1027.9 1.0
17/09:00pm 7.2 3.7 3.4 77 1.6 SSW 11 19 6 10 1027.5 1027.8 1.0
17/08:30pm 7.4 3.4 2.9 73 1.9 SSW 13 19 7 10 1027.5 1027.8 1.0
17/08:00pm 7.5 3.7 3.9 78 1.6 SSW 13 19 7 10 1027.3 1027.6 1.0
17/07:30pm 7.3 3.7 5.0 85 1.0 SSW 13 17 7 9 1027.2 1027.5 1.0
17/07:00pm 7.6 3.9 4.6 81 1.3 SSW 13 19 7 10 1027.0 1027.3 1.0
17/06:30pm 7.4 4.2 4.9 84 1.1 SW 11 15 6 8 1026.8 1027.1 1.0
17/06:00pm 7.2 4.0 5.0 86 1.0 SSW 11 15 6 8 1026.6 1026.9 1.0
17/05:30pm 7.2 3.7 5.3 88 0.9 SSW 13 17 7 9 1026.5 1026.8 1.0
17/05:00pm 7.8 3.9 5.3 84 1.1 SSW 15 22 8 12 1026.0 1026.3 1.0
17/04:30pm 8.0 3.6 4.9 81 1.4 SSW 17 24 9 13 1026.0 1026.3 1.0
17/04:00pm 7.8 4.4 6.1 89 0.8 SSW 13 24 7 13 1025.8 1026.0 1.0
17/03:30pm 8.1 4.3 5.9 86 1.0 SSW 15 20 8 11 1025.6 1025.8 1.0
17/03:00pm 8.0 4.7 6.6 91 0.7 S 13 26 7 14 1025.3 1025.5 1.0
17/02:30pm 7.9 3.8 6.2 89 0.8 S 17 32 9 17 1025.4 1025.6 0.8
17/02:00pm 7.8 3.4 6.6 92 0.6 SSW 19 32 10 17 1025.2 1025.4 0.8
17/01:30pm 9.7 5.5 5.5 75 1.9 SSW 17 28 9 15 1025.0 1025.2 0.6
17/01:00pm 9.5 6.4 7.4 87 1.0 WSW 13 22 7 12 1025.1 1025.3 0.6
17/12:30pm 8.8 4.8 6.6 86 1.0 SW 17 30 9 16 1025.3 1025.5 0.6
17/12:00pm 7.8 3.9 6.9 94 0.4 SSW 17 30 9 16 1025.5 1025.7 0.6
17/11:30am 9.3 5.7 6.9 85 1.1 SSW 15 24 8 13 1025.8 1026.0 0.0
17/11:00am 8.3 4.8 7.1 92 0.6 SSW 15 28 8 15 1026.0 1026.3 0.0
17/10:30am 8.9 5.5 7.5 91 0.7 SW 15 22 8 12 1025.9 1026.2 0.0
17/10:00am 8.6 5.4 6.7 88 0.9 WSW 13 22 7 12 1025.8 1026.0 0.0
17/09:30am 7.6 3.5 6.4 92 0.6 SW 17 28 9 15 1025.7 1025.9 0.0
17/09:00am 7.6 2.8 5.6 87 0.9 SW 20 30 11 16 1025.2 1025.4 5.8
17/08:30am 6.9 2.3 5.7 92 0.5 SW 19 28 10 15 1024.9 1025.1 5.8
17/08:00am 6.9 1.8 5.8 93 0.5 SW 22 35 12 19 1024.3 1024.6 5.6
17/07:30am 6.7 1.9 5.5 92 0.5 SW 20 32 11 17 1024.3 1024.6 5.6
17/07:00am 6.5 2.6 5.3 92 0.5 SW 15 22 8 12 1024.0 1024.3 5.6
17/06:30am 6.4 2.2 5.5 94 0.4 SW 17 28 9 15 1023.6 1023.9 5.2
17/06:00am 6.4 2.2 5.5 94 0.4 SW 17 26 9 14 1023.1 1023.3 5.2
17/05:30am 6.3 2.1 5.7 96 0.3 WSW 17 24 9 13 1023.0 1023.2 5.2
17/05:00am 6.1 2.2 5.4 95 0.3 SW 15 28 8 15 1022.7 1022.9 5.2
17/04:30am 6.3 2.1 5.7 96 0.3 SW 17 26 9 14 1022.8 1023.0 5.2
17/04:00am 6.0 2.1 5.4 96 0.3 WSW 15 22 8 12 1022.7 1022.9 5.2
17/03:30am 6.3 2.1 5.6 95 0.3 WSW 17 28 9 15 1022.9 1023.1 5.0
17/03:00am 6.3 1.5 5.6 95 0.3 SW 20 33 11 18 1022.8 1023.0 5.0
17/02:30am 6.3 1.7 5.6 95 0.3 WSW 19 28 10 15 1022.8 1023.0 5.0
17/02:00am 6.1 1.9 5.5 96 0.3 SW 17 28 9 15 1022.9 1023.1 5.0
17/01:30am 6.2 1.5 5.3 94 0.4 SW 19 28 10 15 1022.7 1022.9 5.0
17/01:00am 5.9 1.5 4.7 92 0.5 WSW 17 26 9 14 1022.7 1022.9 4.6
17/12:30am 5.9 0.9 4.7 92 0.5 WSW 20 33 11 18 1022.7 1022.9 4.6
17/12:00am 4.9 1.5 4.0 94 0.4 WSW 11 17 6 9 1022.7 1022.9 4.6
 
Date/Time
CST
Temp
°C
App
Temp
°C
Dew
Point
°C
Rel
Hum
%
Delta-T
°C
Wind Press
QNH
hPa
Press
MSL
hPa
Rain since
9am
mm
Dir  Spd
km/h
Gust
km/h
Spd
kts
Gust
kts
16/11:30pm 5.1 1.3 4.1 93 0.4 WSW 13 17 7 9 1022.7 1022.9 4.6
16/11:00pm 5.5 0.9 3.8 89 0.7 WSW 17 28 9 15 1022.4 1022.6 4.6
16/10:30pm 5.3 0.3 3.6 89 0.7 SW 19 28 10 15 1022.1 1022.3 4.6
16/10:00pm 5.2 0.3 3.9 91 0.6 SW 19 28 10 15 1022.1 1022.3 4.6
16/09:30pm 5.1 0.1 3.6 90 0.6 SW 19 32 10 17 1022.0 1022.2 4.2
16/09:00pm 5.6 0.8 2.8 82 1.2 SW 17 26 9 14 1021.7 1022.0 4.0
16/08:30pm 5.7 0.5 2.5 80 1.3 SW 19 30 10 16 1021.6 1021.9 4.0
16/08:00pm 5.3 0.6 3.0 85 1.0 SW 17 28 9 15 1021.4 1021.7 4.0
16/07:30pm 5.4 0.1 3.1 85 1.0 WSW 20 28 11 15 1021.0 1021.2 4.0
16/07:00pm 5.2 0.9 3.4 88 0.8 WSW 15 20 8 11 1020.5 1020.7 4.0
16/06:30pm 5.0 0.5 4.1 94 0.4 SW 17 28 9 15 1019.8 1020.0 4.0
16/06:00pm 5.2 1.5 4.5 95 0.3 W 13 17 7 9 1019.5 1019.7 4.0
16/05:30pm 5.6 0.7 4.1 90 0.6 SW 19 30 10 16 1019.3 1019.5 4.0
16/05:00pm 5.5 -0.3 4.3 92 0.5 SW 24 37 13 20 1019.3 1019.5 4.0
16/04:46pm 5.6 -1.0 4.4 92 0.5 SSW 28 52 15 28 1019.1 1019.3 3.8
16/04:30pm 6.0 1.6 5.0 93 0.4 SW 17 28 9 15 1019.1 1019.3 3.6
16/04:04pm 5.9 -0.6 4.9 93 0.4 SW 28 50 15 27 1018.6 1018.8 3.6
16/04:00pm 5.9 -0.2 5.0 94 0.4 SW 26 50 14 27 1018.5 1018.7 3.6
16/03:30pm 6.9 1.5 4.7 86 1.0 SW 22 39 12 21 1018.2 1018.4 2.4
16/03:00pm 7.9 0.5 4.8 81 1.4 WSW 33 52 18 28 1017.8 1018.0 2.2
16/02:37pm 7.4 1.0 5.4 87 0.9 SW 28 46 15 25 1017.7 1017.9 2.2
16/02:30pm 7.0 -0.2 5.2 88 0.8 SW 32 46 17 25 1017.7 1017.9 2.2
16/02:00pm 8.9 2.5 5.1 77 1.7 WSW 28 46 15 25 1017.5 1017.7 1.0
16/01:30pm 8.1 0.0 5.2 82 1.3 WSW 37 67 20 36 1017.8 1018.0 1.0
16/01:22pm 7.7 0.5 5.2 84 1.1 WSW 32 67 17 36 1017.6 1017.8 1.0
16/01:21pm 7.6 1.3 5.9 89 0.8 WSW 28 48 15 26 1017.6 1017.8 1.0
16/01:00pm 7.6 2.5 6.1 90 0.7 WSW 22 35 12 19 1018.1 1018.3 0.8
16/12:35pm 7.1 0.6 4.9 86 1.0 WSW 28 56 15 30 1018.3 1018.5 0.8
16/12:30pm 8.5 2.3 4.5 76 1.8 WSW 26 43 14 23 1018.3 1018.5 0.6
16/12:14pm 8.9 2.4 4.9 76 1.8 WSW 28 46 15 25 1018.5 1018.7 0.6
16/12:00pm 9.1 2.7 5.3 77 1.7 WSW 28 43 15 23 1018.6 1018.8 0.6
16/11:49am 8.9 2.4 4.9 76 1.8 WSW 28 46 15 25 1018.7 1018.9 0.6
16/11:30am 8.3 3.9 6.6 89 0.8 WSW 19 30 10 16 1019.1 1019.3 0.6
16/11:00am 6.6 0.5 4.9 89 0.8 SW 26 44 14 24 1019.4 1019.6 0.6
16/10:30am 7.7 4.0 6.3 91 0.7 WSW 15 22 8 12 1019.6 1019.8 0.4
16/10:00am 7.7 3.0 5.2 84 1.1 WSW 19 30 10 16 1019.6 1019.8 0.2
16/09:30am 7.3 2.3 4.8 84 1.1 WSW 20 33 11 18 1019.4 1019.6 0.0
16/09:00am 6.8 2.2 3.9 82 1.3 SW 17 28 9 15 1019.2 1019.4 1.6
16/08:30am 6.3 1.3 3.5 82 1.2 WSW 19 28 10 15 1018.8 1019.1 1.6
16/08:00am 5.9 0.8 3.2 83 1.1 WSW 19 26 10 14 1018.3 1018.5 1.6
16/07:30am 5.7 0.7 3.4 85 1.0 SW 19 30 10 16 1018.3 1018.5 1.6
16/07:00am 5.7 1.1 3.5 86 0.9 WSW 17 28 9 15 1018.1 1018.3 1.6
16/06:30am 5.7 0.8 3.9 88 0.8 SW 19 30 10 16 1017.7 1017.9 1.6
16/06:00am 5.8 0.8 4.6 92 0.5 SW 20 32 11 17 1017.4 1017.6 1.6
16/05:30am 5.6 0.2 4.7 94 0.4 SW 22 35 12 19 1017.1 1017.3 1.6
16/05:04am 6.0 -0.4 5.0 93 0.4 SW 28 46 15 25 1016.8 1017.0 1.4
16/05:00am 6.3 1.1 5.3 93 0.4 SW 22 46 12 25 1016.8 1017.0 1.2
16/04:30am 6.4 1.8 5.5 94 0.4 SW 19 32 10 17 1016.8 1017.0 1.0
16/04:00am 7.3 2.5 5.8 90 0.7 WSW 20 32 11 17 1016.5 1016.6 0.6
16/03:30am 7.1 2.6 5.9 92 0.6 WSW 19 28 10 15 1016.6 1016.8 0.6
16/03:00am 7.2 2.4 5.8 91 0.6 WSW 20 37 11 20 1016.7 1016.9 0.6
16/02:30am 7.3 1.5 6.1 92 0.6 WSW 26 43 14 23 1017.0 1017.2 0.6
16/02:04am 7.7 1.4 5.8 88 0.9 WSW 28 48 15 26 1016.6 1016.8 0.4
16/02:00am 8.0 2.5 6.1 88 0.9 WSW 24 48 13 26 1016.6 1016.8 0.2
16/01:30am 8.4 3.1 4.8 78 1.6 W 22 33 12 18 1016.5 1016.6 0.2
16/01:00am 8.2 2.9 5.1 81 1.4 WSW 22 35 12 19 1016.5 1016.6 0.2
16/12:30am 8.4 2.8 5.5 82 1.3 WSW 24 43 13 23 1016.7 1016.9 0.2
16/12:00am 7.9 3.1 5.5 85 1.1 WSW 20 32 11 17 1017.1 1017.3 0.2
 
Date/Time
CST
Temp
°C
App
Temp
°C
Dew
Point
°C
Rel
Hum
%
Delta-T
°C
Wind Press
QNH
hPa
Press
MSL
hPa
Rain since
9am
mm
Dir  Spd
km/h
Gust
km/h
Spd
kts
Gust
kts
15/11:30pm 8.4 3.1 5.2 80 1.5 WSW 22 30 12 16 1017.1 1017.3 0.2
15/11:00pm 8.4 3.5 5.0 79 1.5 WSW 20 37 11 20 1017.3 1017.5 0.2
15/10:30pm 8.9 4.3 5.5 79 1.6 WSW 19 32 10 17 1017.5 1017.7 0.0
15/10:00pm 8.5 5.1 6.0 84 1.2 WSW 13 20 7 11 1017.7 1017.9 0.0
15/09:30pm 9.2 4.8 6.5 83 1.3 WSW 19 32 10 17 1017.9 1018.1 0.0

Latest Capital City Observations: Canberra | Sydney | Melbourne | Brisbane | Adelaide | Perth | Hobart | Darwin

Other Formats:

Comma delimited format used in spreadsheet applications
http://www.bom.gov.au/fwo/IDS60901/IDS60901.94683.axf

JavaScript Object Notation format (JSON) in row-major order
http://www.bom.gov.au/fwo/IDS60901/IDS60901.94683.json